Time;durP1;ratioP1;P1;durP2;ratioP2;P2;SDS_P1;SDS_P2;PMS_P1;PMS_P2;Temp;Humidity;BMP_temperature;BMP_pressure;BME280_temperature;BME280_humidity;BME280_pressure;Samples;Min_cycle;Max_cycle;Signal;HPM_P1;HPM_P2
2022/10/13 00:01:12;;;;;;;19.63;13.13;;;10.60;99.90;;;;;;5052897;28;20063;-62
2022/10/13 00:03:39;;;;;;;21.17;12.85;;;10.60;99.90;;;;;;5052802;28;20040;-62
2022/10/13 00:06:07;;;;;;;19.40;12.98;;;10.60;99.90;;;;;;5052617;28;20346;-63
2022/10/13 00:08:33;;;;;;;19.58;12.57;;;10.60;99.90;;;;;;5051843;28;20071;-64
2022/10/13 00:10:59;;;;;;;19.52;12.88;;;10.60;99.90;;;;;;5068227;28;20395;-62
2022/10/13 00:13:25;;;;;;;20.65;13.13;;;10.60;99.90;;;;;;5052092;28;20498;-63
2022/10/13 00:15:51;;;;;;;18.95;12.60;;;10.60;99.90;;;;;;5052152;28;20032;-62
2022/10/13 00:18:16;;;;;;;19.63;13.23;;;10.60;99.90;;;;;;5050508;28;20047;-63
2022/10/13 00:20:45;;;;;;;21.58;13.40;;;10.60;99.90;;;;;;5052309;28;20075;-62
2022/10/13 00:23:10;;;;;;;17.90;12.55;;;10.60;99.90;;;;;;5052199;28;20094;-62
2022/10/13 00:25:46;;;;;;;18.73;12.43;;;10.60;99.90;;;;;;5052306;28;20045;-63
2022/10/13 00:28:13;;;;;;;17.80;12.20;;;10.60;99.90;;;;;;5051836;28;20072;-62
2022/10/13 00:30:40;;;;;;;20.67;13.32;;;10.60;99.90;;;;;;5052253;28;20147;-62
2022/10/13 00:33:05;;;;;;;18.35;12.40;;;10.60;99.90;;;;;;5052049;28;20479;-63
2022/10/13 00:35:31;;;;;;;18.27;12.25;;;10.60;99.90;;;;;;5052084;28;20139;-62
2022/10/13 00:37:57;;;;;;;20.58;12.93;;;10.60;99.90;;;;;;5049631;28;20506;-62
2022/10/13 00:40:23;;;;;;;17.05;12.75;;;10.60;99.90;;;;;;5051261;28;20072;-63
2022/10/13 00:42:48;;;;;;;17.60;12.95;;;10.60;99.90;;;;;;5051983;28;20061;-62
2022/10/13 00:45:19;;;;;;;20.98;12.65;;;10.60;99.90;;;;;;5051428;28;20052;-63
2022/10/13 00:47:48;;;;;;;19.45;12.40;;;10.60;99.90;;;;;;5066230;28;20084;-63
2022/10/13 00:50:21;;;;;;;17.60;12.88;;;10.60;99.90;;;;;;5050428;28;20112;-63
2022/10/13 00:52:48;;;;;;;20.40;12.48;;;10.60;99.90;;;;;;5051458;28;20110;-63
2022/10/13 00:55:19;;;;;;;21.30;13.18;;;10.60;99.90;;;;;;5051890;28;20036;-63
2022/10/13 00:57:47;;;;;;;20.23;13.43;;;10.50;99.90;;;;;;5051276;28;20048;-62
2022/10/13 01:00:13;;;;;;;18.20;12.27;;;10.50;99.90;;;;;;5051189;28;20037;-64
2022/10/13 01:02:38;;;;;;;20.85;13.43;;;10.50;99.90;;;;;;5051468;28;20039;-62
2022/10/13 01:05:05;;;;;;;17.65;11.50;;;10.50;99.90;;;;;;5052566;28;20037;-62
2022/10/13 01:07:32;;;;;;;20.88;12.77;;;10.50;99.90;;;;;;5033200;28;20040;-63
2022/10/13 01:10:00;;;;;;;21.02;13.55;;;10.50;99.90;;;;;;5043781;28;20143;-62
2022/10/13 01:13:00;;;;;;;17.60;11.63;;;10.50;99.90;;;;;;5050954;28;20093;-63
2022/10/13 01:15:53;;;;;;;18.85;12.43;;;10.50;99.90;;;;;;5028261;28;20141;-63
2022/10/13 01:18:38;;;;;;;19.35;13.05;;;10.50;99.90;;;;;;5039804;28;20055;-62
2022/10/13 01:21:16;;;;;;;22.65;13.20;;;10.50;99.90;;;;;;5051205;28;20136;-64
2022/10/13 01:24:18;;;;;;;19.13;12.30;;;10.50;99.90;;;;;;5050789;28;20488;-62
2022/10/13 01:26:49;;;;;;;18.13;12.32;;;10.50;99.90;;;;;;5041024;28;20036;-63
2022/10/13 01:29:40;;;;;;;19.95;12.68;;;10.40;99.90;;;;;;5050642;28;20093;-62
2022/10/13 01:32:33;;;;;;;17.88;12.43;;;10.50;99.90;;;;;;5051015;28;20535;-64
2022/10/13 01:35:09;;;;;;;21.23;12.32;;;10.40;99.90;;;;;;5039336;28;20128;-62
2022/10/13 01:38:03;;;;;;;19.70;12.95;;;10.50;99.90;;;;;;5050538;28;20037;-62
2022/10/13 01:40:41;;;;;;;16.63;11.70;;;10.40;99.90;;;;;;5038490;28;20052;-62
2022/10/13 01:43:19;;;;;;;18.65;12.32;;;10.40;99.90;;;;;;5050913;28;20041;-63
2022/10/13 01:45:56;;;;;;;17.60;12.52;;;10.40;99.90;;;;;;5049460;28;20378;-63
2022/10/13 01:48:24;;;;;;;21.17;12.57;;;10.40;99.90;;;;;;5050212;28;20033;-62
2022/10/13 01:50:52;;;;;;;18.80;12.32;;;10.40;99.90;;;;;;5050869;28;20037;-63
2022/10/13 01:53:19;;;;;;;18.33;11.85;;;10.50;99.90;;;;;;5050443;28;20090;-62
2022/10/13 01:55:59;;;;;;;21.55;13.27;;;10.50;99.90;;;;;;5050804;28;20037;-62
2022/10/13 01:58:28;;;;;;;20.42;12.13;;;10.50;99.90;;;;;;5049770;28;20088;-62
2022/10/13 02:01:09;;;;;;;17.98;12.20;;;10.50;99.90;;;;;;5049984;28;20116;-63
2022/10/13 02:04:05;;;;;;;19.40;13.00;;;10.50;99.90;;;;;;5050302;28;20052;-62
2022/10/13 02:07:04;;;;;;;16.17;12.30;;;10.60;99.90;;;;;;5049494;28;20474;-62
2022/10/13 02:09:34;;;;;;;17.98;12.43;;;10.50;99.90;;;;;;5050002;28;20028;-62
2022/10/13 02:12:28;;;;;;;17.38;12.35;;;10.60;99.90;;;;;;5050352;28;20132;-62
2022/10/13 02:14:57;;;;;;;20.38;12.30;;;10.60;99.90;;;;;;5041261;28;20077;-63
2022/10/13 02:17:26;;;;;;;19.60;12.85;;;10.70;99.90;;;;;;5049894;28;20040;-62
2022/10/13 02:19:52;;;;;;;19.73;12.70;;;10.70;99.90;;;;;;5049942;28;20053;-63
2022/10/13 02:22:19;;;;;;;20.40;12.50;;;10.70;99.90;;;;;;5050139;28;20040;-63
2022/10/13 02:24:45;;;;;;;21.88;12.15;;;10.70;99.90;;;;;;5050248;28;20043;-62
2022/10/13 02:27:11;;;;;;;18.50;12.20;;;10.70;99.90;;;;;;5049635;28;20041;-62
2022/10/13 02:29:54;;;;;;;20.80;12.70;;;10.70;99.90;;;;;;5046998;28;20407;-63
2022/10/13 02:32:21;;;;;;;21.98;13.93;;;10.70;99.90;;;;;;5050014;28;20374;-63
2022/10/13 02:34:46;;;;;;;21.52;13.15;;;10.70;99.90;;;;;;5050165;28;20045;-64
2022/10/13 02:37:12;;;;;;;18.38;12.43;;;10.70;99.90;;;;;;5049725;28;20033;-62
2022/10/13 02:39:38;;;;;;;22.67;13.48;;;10.70;99.90;;;;;;5049762;28;20106;-62
2022/10/13 02:42:04;;;;;;;17.33;12.45;;;10.70;99.90;;;;;;5050281;28;20045;-64
2022/10/13 02:44:30;;;;;;;22.55;13.48;;;10.70;99.90;;;;;;5049956;28;20072;-62
2022/10/13 02:46:55;;;;;;;18.80;13.00;;;10.70;99.90;;;;;;5049722;28;20047;-62
2022/10/13 02:49:21;;;;;;;18.90;13.80;;;10.70;99.90;;;;;;5049807;28;20057;-63
2022/10/13 02:51:46;;;;;;;20.15;13.50;;;10.80;99.90;;;;;;5049585;28;20446;-62
2022/10/13 02:54:12;;;;;;;20.45;13.77;;;10.70;99.90;;;;;;5049702;28;20523;-63
2022/10/13 02:56:37;;;;;;;19.85;13.60;;;10.70;99.90;;;;;;5049161;28;20397;-63
2022/10/13 02:59:03;;;;;;;19.73;13.38;;;10.80;99.90;;;;;;5049676;28;20416;-63
2022/10/13 03:01:29;;;;;;;20.70;13.73;;;10.80;99.90;;;;;;5050035;28;20044;-62
2022/10/13 03:03:54;;;;;;;20.98;15.27;;;10.80;99.90;;;;;;5050273;28;20366;-63
2022/10/13 03:06:20;;;;;;;20.75;14.30;;;10.80;99.90;;;;;;5049543;28;20037;-62
2022/10/13 03:08:46;;;;;;;20.27;14.45;;;10.80;99.90;;;;;;5049508;28;20386;-64
2022/10/13 03:11:11;;;;;;;22.50;14.88;;;10.80;99.90;;;;;;5049491;28;20041;-64
2022/10/13 03:13:37;;;;;;;20.83;14.32;;;10.80;99.90;;;;;;5049665;28;20107;-63
2022/10/13 03:16:03;;;;;;;21.63;14.40;;;10.80;99.90;;;;;;5050149;28;20040;-64
2022/10/13 03:18:29;;;;;;;20.92;14.82;;;10.80;99.90;;;;;;5053047;28;20029;-63
2022/10/13 03:21:04;;;;;;;23.75;15.02;;;10.80;99.90;;;;;;5053467;28;20041;-63
2022/10/13 03:23:30;;;;;;;24.83;15.13;;;10.80;99.90;;;;;;5053381;28;20033;-63
2022/10/13 03:25:56;;;;;;;21.40;15.68;;;10.80;99.90;;;;;;5051846;28;20041;-62
2022/10/13 03:28:22;;;;;;;21.52;15.15;;;10.80;99.90;;;;;;5052484;28;20120;-62
2022/10/13 03:30:47;;;;;;;23.25;14.82;;;10.80;99.90;;;;;;5053395;28;20135;-62
2022/10/13 03:33:13;;;;;;;21.45;15.30;;;10.80;99.90;;;;;;5053598;28;20354;-62
2022/10/13 03:35:39;;;;;;;21.35;16.23;;;10.80;99.90;;;;;;5053240;28;20045;-63
2022/10/13 03:38:05;;;;;;;23.80;15.55;;;10.80;99.90;;;;;;5052565;28;20043;-62
2022/10/13 03:40:30;;;;;;;21.80;15.80;;;10.80;99.90;;;;;;5053010;28;20064;-62
2022/10/13 03:42:56;;;;;;;24.00;16.65;;;10.80;99.90;;;;;;5053066;28;20146;-62
2022/10/13 03:45:21;;;;;;;23.05;15.80;;;10.80;99.90;;;;;;5053083;28;20037;-62
2022/10/13 03:47:47;;;;;;;23.77;16.55;;;10.80;99.90;;;;;;5052824;28;20045;-61
2022/10/13 03:50:13;;;;;;;21.63;15.20;;;10.80;99.90;;;;;;5052948;28;20076;-62
2022/10/13 03:52:38;;;;;;;24.27;16.45;;;10.80;99.90;;;;;;5051616;28;20049;-63
2022/10/13 03:55:04;;;;;;;23.17;15.70;;;10.80;99.90;;;;;;5052761;28;20136;-62
2022/10/13 03:57:30;;;;;;;23.27;16.10;;;10.80;99.90;;;;;;5052751;28;20124;-62
2022/10/13 03:59:56;;;;;;;25.52;16.27;;;10.80;99.90;;;;;;5051837;28;20045;-62
2022/10/13 04:02:22;;;;;;;25.60;15.95;;;10.80;99.90;;;;;;5052355;28;20140;-62
2022/10/13 04:04:48;;;;;;;22.85;16.05;;;10.80;99.90;;;;;;5052663;28;20127;-62
2022/10/13 04:07:13;;;;;;;19.15;15.10;;;10.80;99.90;;;;;;5051746;28;20582;-62
2022/10/13 04:09:39;;;;;;;19.20;15.57;;;10.80;99.90;;;;;;5052488;28;20342;-62
2022/10/13 04:12:05;;;;;;;24.25;16.75;;;10.80;99.90;;;;;;5052672;28;20037;-62
2022/10/13 04:14:30;;;;;;;22.88;16.13;;;10.80;99.90;;;;;;5053040;28;20025;-62
2022/10/13 04:16:56;;;;;;;23.27;16.25;;;10.80;99.90;;;;;;5051871;28;20040;-62
2022/10/13 04:19:22;;;;;;;21.33;16.60;;;10.80;99.90;;;;;;5052184;28;20040;-61
2022/10/13 04:21:47;;;;;;;23.98;16.00;;;10.80;99.90;;;;;;5052393;28;20442;-61
2022/10/13 04:24:13;;;;;;;23.20;16.08;;;10.80;99.90;;;;;;5052149;28;20064;-63
2022/10/13 04:26:39;;;;;;;25.35;17.23;;;10.80;99.90;;;;;;5052284;28;20041;-61
2022/10/13 04:29:06;;;;;;;25.08;17.25;;;10.80;99.90;;;;;;5051243;28;20454;-62
2022/10/13 04:31:32;;;;;;;21.92;17.10;;;10.80;99.90;;;;;;5052571;28;20037;-62
2022/10/13 04:33:57;;;;;;;21.67;16.50;;;10.70;99.90;;;;;;5052811;28;20045;-62
2022/10/13 04:36:24;;;;;;;23.10;16.38;;;10.70;99.90;;;;;;5051660;28;20039;-62
2022/10/13 04:38:50;;;;;;;22.65;15.77;;;10.80;99.90;;;;;;5051176;28;20374;-62
2022/10/13 04:41:17;;;;;;;20.35;15.20;;;10.80;99.90;;;;;;5051593;28;20065;-62
2022/10/13 04:43:45;;;;;;;22.85;15.90;;;10.80;99.90;;;;;;5037483;28;20071;-62
2022/10/13 04:46:17;;;;;;;23.52;16.95;;;10.80;99.90;;;;;;5050464;28;20541;-62
2022/10/13 04:48:43;;;;;;;20.08;15.82;;;10.80;99.90;;;;;;5050947;28;20128;-62
2022/10/13 04:51:11;;;;;;;19.27;15.75;;;10.80;99.90;;;;;;5050308;28;20028;-63
2022/10/13 04:53:38;;;;;;;35.50;17.05;;;10.80;99.90;;;;;;5050798;28;20373;-62
2022/10/13 04:56:07;;;;;;;23.00;16.63;;;10.80;99.90;;;;;;5050309;28;20039;-62
2022/10/13 04:58:33;;;;;;;21.77;15.88;;;10.80;99.90;;;;;;5051070;28;20064;-63
2022/10/13 05:00:59;;;;;;;21.92;16.08;;;10.80;99.90;;;;;;5050033;28;20195;-62
2022/10/13 05:03:25;;;;;;;26.83;17.17;;;10.90;99.90;;;;;;5049775;28;20430;-62
2022/10/13 05:05:52;;;;;;;21.75;15.48;;;10.90;99.90;;;;;;5049715;28;20157;-61
2022/10/13 05:08:17;;;;;;;20.63;15.95;;;10.90;99.90;;;;;;5050422;28;20041;-62
2022/10/13 05:10:56;;;;;;;22.17;15.70;;;11.00;99.90;;;;;;5050926;28;20044;-62
2022/10/13 05:13:22;;;;;;;22.63;15.38;;;11.00;99.90;;;;;;5050748;28;20037;-62
2022/10/13 05:15:48;;;;;;;21.98;15.60;;;11.00;99.90;;;;;;5050376;28;20033;-62
2022/10/13 05:18:14;;;;;;;22.48;15.85;;;11.00;99.90;;;;;;5050268;28;20328;-62
2022/10/13 05:20:39;;;;;;;21.55;15.77;;;11.00;99.90;;;;;;5049712;28;20083;-62
2022/10/13 05:23:05;;;;;;;22.35;15.73;;;11.00;99.90;;;;;;5048783;28;20094;-62
2022/10/13 05:25:30;;;;;;;24.65;15.73;;;11.10;99.90;;;;;;5050112;28;20041;-63
2022/10/13 05:27:56;;;;;;;24.70;16.15;;;11.00;99.90;;;;;;5049595;28;20041;-62
2022/10/13 05:30:22;;;;;;;21.00;15.10;;;11.10;99.90;;;;;;5050026;28;20053;-62
2022/10/13 05:32:47;;;;;;;24.15;15.68;;;11.10;99.90;;;;;;5050562;28;20044;-62
2022/10/13 05:35:13;;;;;;;22.83;15.80;;;11.10;99.90;;;;;;5051122;28;20055;-62
2022/10/13 05:37:38;;;;;;;22.48;16.45;;;11.10;99.90;;;;;;5049369;28;20068;-62
2022/10/13 05:40:04;;;;;;;22.95;15.95;;;11.10;99.90;;;;;;5048843;28;20166;-63
2022/10/13 05:42:30;;;;;;;23.90;15.40;;;11.10;99.90;;;;;;5049709;28;20422;-62
2022/10/13 05:44:56;;;;;;;20.48;15.63;;;11.10;99.90;;;;;;5048501;28;20106;-62
2022/10/13 05:47:25;;;;;;;23.73;16.20;;;11.10;99.90;;;;;;5049491;28;20053;-63
2022/10/13 05:49:51;;;;;;;21.27;16.20;;;11.10;99.90;;;;;;5049551;28;20470;-63
2022/10/13 05:52:17;;;;;;;21.75;15.98;;;11.20;99.90;;;;;;5049144;28;20328;-64
2022/10/13 05:54:47;;;;;;;22.52;16.23;;;11.20;99.90;;;;;;5049948;28;20076;-62
2022/10/13 05:57:24;;;;;;;24.48;17.50;;;11.20;99.90;;;;;;5049472;28;20512;-62
2022/10/13 06:00:00;;;;;;;23.65;16.20;;;11.20;99.90;;;;;;5049728;28;20044;-62
2022/10/13 06:02:33;;;;;;;24.83;16.90;;;11.20;99.90;;;;;;5047713;28;20450;-62
2022/10/13 06:05:01;;;;;;;22.00;16.33;;;11.20;99.90;;;;;;5049718;28;20048;-62
2022/10/13 06:07:28;;;;;;;25.70;17.67;;;11.20;99.90;;;;;;5049892;28;20366;-63
2022/10/13 06:09:56;;;;;;;21.27;17.00;;;11.20;99.90;;;;;;5050030;28;20052;-62
2022/10/13 06:12:21;;;;;;;25.67;16.40;;;11.20;99.90;;;;;;5048305;28;20051;-62
2022/10/13 06:14:47;;;;;;;23.70;15.95;;;11.20;99.90;;;;;;5049781;28;20037;-62
2022/10/13 06:17:13;;;;;;;22.63;16.20;;;11.20;99.90;;;;;;5050402;28;20108;-62
2022/10/13 06:19:39;;;;;;;24.17;17.92;;;11.20;99.90;;;;;;5049923;28;20120;-60
2022/10/13 06:22:04;;;;;;;27.40;17.13;;;11.30;99.90;;;;;;5050398;28;20110;-63
2022/10/13 06:24:30;;;;;;;23.50;17.33;;;11.30;99.90;;;;;;5049850;28;20515;-62
2022/10/13 06:26:56;;;;;;;24.52;17.35;;;11.30;99.90;;;;;;5050403;28;20033;-62
2022/10/13 06:29:22;;;;;;;23.00;17.23;;;11.30;99.90;;;;;;5049820;28;20492;-61
2022/10/13 06:31:47;;;;;;;25.13;17.23;;;11.30;99.90;;;;;;5050444;28;20040;-62
2022/10/13 06:34:13;;;;;;;25.33;16.65;;;11.30;99.90;;;;;;5048748;28;20144;-62
2022/10/13 06:36:39;;;;;;;22.42;16.42;;;11.30;99.90;;;;;;5049965;28;20463;-61
2022/10/13 06:39:05;;;;;;;27.48;17.85;;;11.40;99.90;;;;;;5049685;28;20048;-62
2022/10/13 06:41:30;;;;;;;24.77;17.30;;;11.40;99.90;;;;;;5047941;28;20110;-63
2022/10/13 06:43:56;;;;;;;25.17;17.63;;;11.40;99.90;;;;;;5048045;28;20044;-62
2022/10/13 06:46:22;;;;;;;25.77;16.92;;;11.40;99.90;;;;;;5049839;28;20045;-61
2022/10/13 06:48:51;;;;;;;22.23;16.20;;;11.40;99.90;;;;;;5049736;28;20587;-61
2022/10/13 06:51:16;;;;;;;23.45;17.35;;;11.40;99.90;;;;;;5049508;28;20044;-62
2022/10/13 06:53:42;;;;;;;26.55;17.33;;;11.40;99.90;;;;;;5052473;28;20033;-61
2022/10/13 06:56:08;;;;;;;20.75;16.77;;;11.40;99.90;;;;;;5053150;28;20380;-62
2022/10/13 06:58:34;;;;;;;21.63;16.20;;;11.40;99.90;;;;;;5053180;28;20373;-62
2022/10/13 07:01:00;;;;;;;25.20;17.13;;;11.40;99.90;;;;;;5053070;28;20086;-61
2022/10/13 07:03:26;;;;;;;25.63;18.00;;;11.40;99.90;;;;;;5053121;28;20131;-62
2022/10/13 07:05:52;;;;;;;22.60;17.20;;;11.50;99.90;;;;;;5052907;28;20044;-61
2022/10/13 07:08:18;;;;;;;25.02;16.95;;;11.50;99.90;;;;;;5053327;28;20037;-62
2022/10/13 07:10:43;;;;;;;23.35;17.23;;;11.50;99.90;;;;;;5053414;28;20037;-65
2022/10/13 07:13:10;;;;;;;22.05;17.45;;;11.50;99.90;;;;;;5053641;28;20056;-62
2022/10/13 07:15:39;;;;;;;25.35;17.13;;;11.60;99.90;;;;;;5052679;28;20381;-62
2022/10/13 07:18:05;;;;;;;25.30;17.83;;;11.60;99.90;;;;;;5052883;28;20120;-62
2022/10/13 07:20:30;;;;;;;21.67;16.80;;;11.60;99.90;;;;;;5047883;28;20033;-61
2022/10/13 07:22:56;;;;;;;26.35;17.27;;;11.60;99.90;;;;;;5051736;28;20041;-63
2022/10/13 07:25:22;;;;;;;25.25;18.10;;;11.60;99.90;;;;;;5019071;28;20302;-62
2022/10/13 07:27:48;;;;;;;24.60;17.77;;;11.60;99.90;;;;;;5051693;28;20041;-62
2022/10/13 07:30:13;;;;;;;21.83;16.35;;;11.70;99.90;;;;;;5053182;28;20137;-61
2022/10/13 07:32:41;;;;;;;26.67;18.25;;;11.70;99.90;;;;;;5052703;28;20154;-62
2022/10/13 07:35:08;;;;;;;23.83;17.52;;;11.80;99.90;;;;;;5051402;28;20051;-62
2022/10/13 07:37:34;;;;;;;22.60;17.42;;;11.80;99.90;;;;;;5052930;28;20151;-62
2022/10/13 07:39:59;;;;;;;22.20;16.98;;;11.90;99.90;;;;;;5052449;28;20469;-62
2022/10/13 07:42:25;;;;;;;24.30;18.50;;;11.90;99.90;;;;;;5053240;28;20132;-62
2022/10/13 07:44:51;;;;;;;23.65;16.85;;;12.00;99.90;;;;;;5052449;28;20327;-61
2022/10/13 07:47:17;;;;;;;24.35;18.60;;;12.00;99.90;;;;;;5053206;28;20045;-62
2022/10/13 07:49:42;;;;;;;23.38;18.23;;;12.10;99.90;;;;;;5052480;28;20440;-62
2022/10/13 07:52:08;;;;;;;21.63;17.27;;;12.10;99.90;;;;;;5052947;28;20099;-61
2022/10/13 07:54:34;;;;;;;19.73;16.27;;;12.10;99.90;;;;;;5052777;28;20037;-62
2022/10/13 07:56:59;;;;;;;26.52;17.88;;;12.20;99.90;;;;;;5052790;28;20354;-61
2022/10/13 07:59:25;;;;;;;33.20;29.70;;;12.20;99.90;;;;;;5052347;28;20037;-61
2022/10/13 08:01:50;;;;;;;21.42;17.30;;;12.20;99.90;;;;;;5051957;28;20037;-63
2022/10/13 08:04:16;;;;;;;24.65;18.38;;;12.30;99.90;;;;;;5049550;28;20425;-62
2022/10/13 08:06:41;;;;;;;22.38;17.17;;;12.40;99.90;;;;;;5052224;28;20156;-61
2022/10/13 08:09:07;;;;;;;27.88;20.25;;;12.40;99.90;;;;;;5051574;28;20377;-61
2022/10/13 08:11:33;;;;;;;25.67;17.85;;;12.50;99.90;;;;;;5051886;28;20037;-62
2022/10/13 08:14:00;;;;;;;23.00;16.75;;;12.60;99.90;;;;;;5051346;28;20033;-62
2022/10/13 08:16:31;;;;;;;25.42;18.42;;;12.60;99.90;;;;;;5051627;28;20056;-62
2022/10/13 08:18:58;;;;;;;24.35;18.42;;;12.70;99.90;;;;;;5051486;28;20059;-62
2022/10/13 08:21:24;;;;;;;27.90;18.92;;;12.70;99.90;;;;;;5051792;28;20091;-63
2022/10/13 08:23:49;;;;;;;23.20;17.92;;;12.70;99.90;;;;;;5051362;28;20041;-61
2022/10/13 08:26:24;;;;;;;26.65;17.45;;;12.80;99.90;;;;;;5051305;28;20454;-63
2022/10/13 08:28:49;;;;;;;28.85;19.13;;;12.80;99.90;;;;;;5044496;28;20041;-61
2022/10/13 08:31:15;;;;;;;30.42;19.40;;;12.70;99.90;;;;;;5051772;28;20036;-61
2022/10/13 08:33:41;;;;;;;23.02;17.70;;;12.70;99.90;;;;;;5051809;28;20033;-62
2022/10/13 08:36:07;;;;;;;27.15;19.58;;;12.70;99.90;;;;;;5051732;28;20164;-62
2022/10/13 08:38:34;;;;;;;22.90;17.52;;;12.70;99.90;;;;;;5051482;28;20029;-61
2022/10/13 08:41:00;;;;;;;25.73;18.77;;;12.70;99.90;;;;;;5051165;28;20068;-62
2022/10/13 08:43:26;;;;;;;27.00;19.27;;;12.70;99.90;;;;;;5050922;28;20440;-62
2022/10/13 08:45:58;;;;;;;25.67;18.83;;;12.60;99.90;;;;;;5051036;28;20033;-62
2022/10/13 08:48:29;;;;;;;28.33;19.05;;;12.70;99.90;;;;;;5050961;28;20434;-61
2022/10/13 08:50:58;;;;;;;27.23;18.33;;;12.60;99.90;;;;;;5051258;28;20041;-62
2022/10/13 08:53:34;;;;;;;23.48;18.83;;;12.70;99.90;;;;;;5051657;28;20067;-61
2022/10/13 08:56:08;;;;;;;31.23;19.45;;;12.70;99.90;;;;;;5051116;28;20734;-61
2022/10/13 08:58:37;;;;;;;27.42;19.95;;;12.70;99.90;;;;;;5051208;28;20337;-62
2022/10/13 09:01:17;;;;;;;30.20;20.30;;;12.60;99.90;;;;;;5051487;28;20041;-63
2022/10/13 09:03:48;;;;;;;28.80;20.13;;;12.70;99.90;;;;;;5050705;28;20029;-61
2022/10/13 09:06:27;;;;;;;30.67;20.30;;;12.70;99.90;;;;;;5049683;28;20478;-61
2022/10/13 09:08:57;;;;;;;28.58;21.20;;;12.70;99.90;;;;;;5048989;28;20103;-62
2022/10/13 09:11:29;;;;;;;27.85;20.40;;;12.80;99.90;;;;;;5049160;28;20120;-61
2022/10/13 09:13:57;;;;;;;35.63;22.50;;;12.90;99.90;;;;;;5048570;28;20475;-61
2022/10/13 09:16:34;;;;;;;35.55;20.95;;;12.90;99.90;;;;;;5050644;28;20080;-61
2022/10/13 09:19:35;;;;;;;30.05;20.85;;;13.00;99.90;;;;;;5050447;28;20094;-62
2022/10/13 09:22:24;;;;;;;30.20;21.08;;;13.10;99.90;;;;;;5042884;28;20053;-62
2022/10/13 09:25:08;;;;;;;30.92;21.25;;;13.10;99.90;;;;;;5050155;28;20041;-62
2022/10/13 09:27:56;;;;;;;30.38;21.38;;;13.10;99.90;;;;;;5047192;28;20037;-61
2022/10/13 09:30:31;;;;;;;31.30;21.45;;;13.10;99.90;;;;;;5050136;28;20167;-61
2022/10/13 09:33:10;;;;;;;;;;;13.10;99.90;;;;;;5050070;28;20052;-62
2022/10/13 09:35:46;;;;;;;30.63;22.40;;;13.10;99.90;;;;;;5050667;28;19982;-62
2022/10/13 09:38:20;;;;;;;31.83;22.60;;;13.10;99.90;;;;;;5050407;28;20083;-62
2022/10/13 09:41:03;;;;;;;29.15;21.88;;;13.00;99.90;;;;;;5051150;28;20064;-62
2022/10/13 09:43:40;;;;;;;30.92;23.05;;;13.10;99.90;;;;;;5050150;28;20124;-61
2022/10/13 09:46:26;;;;;;;32.42;23.75;;;13.10;99.90;;;;;;5050207;28;20080;-62
2022/10/13 09:48:55;;;;;;;33.08;24.15;;;13.10;99.90;;;;;;5050222;28;20041;-62
2022/10/13 09:51:38;;;;;;;33.28;24.67;;;13.10;99.90;;;;;;5066236;28;20381;-62
2022/10/13 09:54:05;;;;;;;33.70;25.50;;;13.10;99.90;;;;;;5050150;28;20477;-62
2022/10/13 09:56:47;;;;;;;30.23;25.48;;;13.20;99.90;;;;;;5050395;28;20470;-62
2022/10/13 09:59:17;;;;;;;32.30;25.25;;;13.10;99.90;;;;;;5039534;28;20048;-62
2022/10/13 10:01:46;;;;;;;33.20;26.38;;;13.10;99.90;;;;;;5050476;28;20123;-61
2022/10/13 10:04:34;;;;;;;32.28;25.33;;;13.20;99.90;;;;;;5048891;28;20056;-62
2022/10/13 10:07:08;;;;;;;32.47;27.13;;;13.20;99.90;;;;;;5050406;28;20045;-62
2022/10/13 10:09:44;;;;;;;34.30;26.52;;;13.20;99.90;;;;;;5049072;28;20131;-63
2022/10/13 10:12:15;;;;;;;30.65;26.23;;;13.20;99.90;;;;;;5049399;28;20037;-62
2022/10/13 10:14:41;;;;;;;33.97;28.13;;;13.20;99.90;;;;;;5049212;28;20029;-62
2022/10/13 10:17:31;;;;;;;34.50;27.38;;;13.20;99.90;;;;;;5048942;28;20041;-61
2022/10/13 10:20:19;;;;;;;38.95;26.95;;;13.20;99.90;;;;;;5048439;28;20055;-61
2022/10/13 10:23:12;;;;;;;33.40;27.10;;;13.30;99.90;;;;;;5049749;28;20051;-62
2022/10/13 10:25:51;;;;;;;36.28;28.05;;;13.30;99.90;;;;;;5042289;28;20056;-62
2022/10/13 10:28:42;;;;;;;33.58;26.52;;;13.30;99.90;;;;;;5049745;28;20062;-61
2022/10/13 10:31:27;;;;;;;32.50;26.60;;;13.30;99.90;;;;;;5049748;28;20060;-62
2022/10/13 10:34:33;;;;;;;33.60;26.23;;;13.40;99.90;;;;;;5042247;28;20450;-62
2022/10/13 10:37:18;;;;;;;34.22;28.23;;;13.40;99.90;;;;;;5049308;28;20053;-62
2022/10/13 10:39:47;;;;;;;36.60;27.65;;;13.40;99.90;;;;;;5049379;28;20037;-61
2022/10/13 10:42:38;;;;;;;33.33;27.85;;;13.50;99.90;;;;;;5049702;28;20430;-62
2022/10/13 10:45:15;;;;;;;33.15;26.38;;;13.50;99.90;;;;;;5049630;28;20122;-62
2022/10/13 10:47:44;;;;;;;36.80;27.95;;;13.50;99.90;;;;;;5049559;28;20462;-61
2022/10/13 10:50:14;;;;;;;33.25;27.45;;;13.60;99.90;;;;;;5048638;28;20601;-62
2022/10/13 10:52:52;;;;;;;34.90;28.23;;;13.60;99.90;;;;;;5049351;28;20459;-62
2022/10/13 10:55:39;;;;;;;35.95;29.17;;;13.60;99.90;;;;;;5049465;28;20057;-62
2022/10/13 10:58:23;;;;;;;37.22;29.33;;;13.70;99.90;;;;;;5049719;28;20061;-62
2022/10/13 11:01:16;;;;;;;32.65;27.95;;;13.70;99.90;;;;;;5036440;28;20047;-63
2022/10/13 11:03:52;;;;;;;37.92;29.75;;;13.80;99.90;;;;;;5049129;28;20059;-62
2022/10/13 11:06:32;;;;;;;35.92;29.67;;;13.80;99.90;;;;;;5049732;28;20053;-63
2022/10/13 11:08:57;;;;;;;36.15;29.90;;;13.80;99.90;;;;;;5049105;28;20533;-63
2022/10/13 11:11:24;;;;;;;34.78;30.65;;;13.90;99.90;;;;;;5049784;28;20048;-62
2022/10/13 11:13:56;;;;;;;38.22;29.23;;;13.90;99.90;;;;;;5049081;28;20098;-63
2022/10/13 11:16:38;;;;;;;34.33;28.50;;;13.90;99.90;;;;;;5048951;28;20032;-62
2022/10/13 11:19:27;;;;;;;39.25;30.38;;;13.90;99.90;;;;;;5049059;28;20041;-63
2022/10/13 11:21:53;;;;;;;35.35;29.98;;;13.80;99.90;;;;;;5045895;28;20064;-63
2022/10/13 11:24:37;;;;;;;36.55;30.75;;;14.00;99.90;;;;;;5049280;28;20416;-62
2022/10/13 11:27:15;;;;;;;38.17;30.52;;;13.80;99.90;;;;;;5049749;28;20163;-62
2022/10/13 11:29:47;;;;;;;34.97;30.80;;;13.80;99.90;;;;;;5043088;28;20049;-62
2022/10/13 11:35:05;;;;;;;36.63;29.70;;;13.80;99.90;;;;;;5045146;28;20045;-62
2022/10/13 11:37:53;;;;;;;37.92;31.33;;;13.80;99.90;;;;;;5050786;28;20040;-62
2022/10/13 11:40:44;;;;;;;39.05;31.23;;;13.80;99.90;;;;;;5052818;28;20064;-62
2022/10/13 11:43:41;;;;;;;35.35;31.17;;;13.80;99.90;;;;;;5051721;28;20049;-62
2022/10/13 11:46:16;;;;;;;40.03;32.17;;;13.80;99.90;;;;;;5053273;28;20052;-63
2022/10/13 11:48:59;;;;;;;34.75;30.98;;;13.90;99.90;;;;;;5052663;28;20033;-62
2022/10/13 11:51:30;;;;;;;40.70;32.88;;;13.90;99.90;;;;;;5053145;28;20050;-63
2022/10/13 11:54:08;;;;;;;40.53;32.58;;;13.90;99.90;;;;;;5052380;28;20090;-63
2022/10/13 11:56:48;;;;;;;40.25;31.52;;;14.00;99.90;;;;;;5053073;28;20061;-62
2022/10/13 11:59:30;;;;;;;36.58;32.22;;;14.00;99.90;;;;;;5042643;28;20047;-62
2022/10/13 12:02:11;;;;;;;38.15;32.20;;;14.00;99.90;;;;;;5052414;28;20044;-63
2022/10/13 12:04:40;;;;;;;38.95;33.10;;;14.00;99.90;;;;;;5052420;28;20115;-63
2022/10/13 12:07:08;;;;;;;40.25;33.58;;;14.00;99.90;;;;;;5052663;28;20155;-61
2022/10/13 12:09:46;;;;;;;39.85;34.05;;;14.00;99.90;;;;;;5052332;28;20068;-62
2022/10/13 12:12:15;;;;;;;43.60;33.55;;;14.00;99.90;;;;;;5052019;28;20037;-62
2022/10/13 12:14:44;;;;;;;39.17;33.40;;;14.00;99.90;;;;;;5051431;28;20159;-62
2022/10/13 12:17:27;;;;;;;38.88;32.65;;;14.00;99.90;;;;;;5051151;28;20248;-62
2022/10/13 12:19:55;;;;;;;42.85;33.67;;;14.00;99.90;;;;;;5052219;28;20743;-62
2022/10/13 12:22:21;;;;;;;45.00;35.10;;;14.00;99.90;;;;;;5052306;28;20037;-62
2022/10/13 12:24:58;;;;;;;41.20;34.15;;;14.00;99.90;;;;;;5051909;28;20370;-62
2022/10/13 12:27:25;;;;;;;45.22;34.75;;;14.00;99.90;;;;;;5052234;28;20037;-63
2022/10/13 12:29:50;;;;;;;43.13;36.10;;;14.00;99.90;;;;;;5051603;28;20581;-63
2022/10/13 12:32:25;;;;;;;40.90;35.55;;;14.00;99.90;;;;;;5051987;28;20138;-62
2022/10/13 12:34:51;;;;;;;38.67;33.45;;;14.00;99.90;;;;;;5038612;28;20121;-63
2022/10/13 12:37:47;;;;;;;39.88;33.38;;;14.10;99.90;;;;;;5052238;28;20116;-62
2022/10/13 12:40:15;;;;;;;37.15;30.67;;;14.20;99.90;;;;;;5050948;28;20049;-62
2022/10/13 12:42:42;;;;;;;36.30;30.02;;;14.30;99.90;;;;;;5052040;28;20378;-62
2022/10/13 12:45:24;;;;;;;36.50;29.70;;;14.40;99.90;;;;;;5051534;28;20045;-62
2022/10/13 12:47:52;;;;;;;32.92;27.52;;;14.40;99.90;;;;;;5051608;28;20390;-61
2022/10/13 12:50:24;;;;;;;31.08;27.75;;;14.50;99.90;;;;;;5050744;28;20045;-62